sensor_id;sensor_type;location;lat;lon;timestamp;temperature;humidity
59660;DHT22;45534;52.690;6.268;2023-03-01T00:01:52;-0.70;99.90
59660;DHT22;45534;52.690;6.268;2023-03-01T00:04:18;-0.70;99.90
59660;DHT22;45534;52.690;6.268;2023-03-01T00:06:44;-0.70;99.90
59660;DHT22;45534;52.690;6.268;2023-03-01T00:09:16;-0.80;99.90
59660;DHT22;45534;52.690;6.268;2023-03-01T00:11:42;-0.80;99.90
59660;DHT22;45534;52.690;6.268;2023-03-01T00:14:09;-0.80;99.90
59660;DHT22;45534;52.690;6.268;2023-03-01T00:16:38;-0.80;99.90
59660;DHT22;45534;52.690;6.268;2023-03-01T00:19:06;-0.80;99.90
59660;DHT22;45534;52.690;6.268;2023-03-01T00:21:32;-0.80;99.90
59660;DHT22;45534;52.690;6.268;2023-03-01T00:23:59;-0.70;99.90
59660;DHT22;45534;52.690;6.268;2023-03-01T00:26:26;-0.70;99.90
59660;DHT22;45534;52.690;6.268;2023-03-01T00:28:52;-0.70;99.90
59660;DHT22;45534;52.690;6.268;2023-03-01T00:31:21;-0.80;99.90
59660;DHT22;45534;52.690;6.268;2023-03-01T00:33:47;-0.80;99.90
59660;DHT22;45534;52.690;6.268;2023-03-01T00:36:14;-0.80;99.90
59660;DHT22;45534;52.690;6.268;2023-03-01T00:38:43;-0.90;99.90
59660;DHT22;45534;52.690;6.268;2023-03-01T00:41:11;-0.90;99.90
59660;DHT22;45534;52.690;6.268;2023-03-01T00:43:37;-1.00;99.90
59660;DHT22;45534;52.690;6.268;2023-03-01T00:46:05;-1.00;99.90
59660;DHT22;45534;52.690;6.268;2023-03-01T00:48:31;-1.10;99.90
59660;DHT22;45534;52.690;6.268;2023-03-01T00:50:57;-1.10;99.90
59660;DHT22;45534;52.690;6.268;2023-03-01T00:53:29;-1.20;99.90
59660;DHT22;45534;52.690;6.268;2023-03-01T00:55:57;-1.20;99.90
59660;DHT22;45534;52.690;6.268;2023-03-01T00:58:23;-1.30;99.90
59660;DHT22;45534;52.690;6.268;2023-03-01T01:00:49;-1.30;99.90
59660;DHT22;45534;52.690;6.268;2023-03-01T01:03:15;-1.30;99.90
59660;DHT22;45534;52.690;6.268;2023-03-01T01:05:40;-1.30;99.90
59660;DHT22;45534;52.690;6.268;2023-03-01T01:08:06;-1.30;99.90
59660;DHT22;45534;52.690;6.268;2023-03-01T01:10:34;-1.30;99.90
59660;DHT22;45534;52.690;6.268;2023-03-01T01:12:59;-1.40;99.90
59660;DHT22;45534;52.690;6.268;2023-03-01T01:15:26;-1.40;99.90
59660;DHT22;45534;52.690;6.268;2023-03-01T01:17:51;-1.50;99.90
59660;DHT22;45534;52.690;6.268;2023-03-01T01:20:17;-1.50;99.90
59660;DHT22;45534;52.690;6.268;2023-03-01T01:22:43;-1.60;99.90
59660;DHT22;45534;52.690;6.268;2023-03-01T01:25:09;-1.60;99.90
59660;DHT22;45534;52.690;6.268;2023-03-01T01:27:34;-1.60;99.90
59660;DHT22;45534;52.690;6.268;2023-03-01T01:30:00;-1.60;99.90
59660;DHT22;45534;52.690;6.268;2023-03-01T01:32:26;-1.60;99.90
59660;DHT22;45534;52.690;6.268;2023-03-01T01:34:52;-1.60;99.90
59660;DHT22;45534;52.690;6.268;2023-03-01T01:37:17;-1.60;99.90
59660;DHT22;45534;52.690;6.268;2023-03-01T01:39:43;-1.50;99.90
59660;DHT22;45534;52.690;6.268;2023-03-01T01:42:18;-1.50;99.90
59660;DHT22;45534;52.690;6.268;2023-03-01T01:44:47;-1.50;99.90
59660;DHT22;45534;52.690;6.268;2023-03-01T01:47:19;-1.60;99.90
59660;DHT22;45534;52.690;6.268;2023-03-01T01:49:53;-1.60;99.90
59660;DHT22;45534;52.690;6.268;2023-03-01T01:52:24;-1.70;99.90
59660;DHT22;45534;52.690;6.268;2023-03-01T01:55:05;-1.70;99.90
59660;DHT22;45534;52.690;6.268;2023-03-01T02:00:16;-1.70;99.90
59660;DHT22;45534;52.690;6.268;2023-03-01T02:02:43;-1.70;99.90
59660;DHT22;45534;52.690;6.268;2023-03-01T02:05:27;-1.60;99.90
59660;DHT22;45534;52.690;6.268;2023-03-01T02:07:55;-1.50;99.90
59660;DHT22;45534;52.690;6.268;2023-03-01T02:10:22;-1.40;99.90
59660;DHT22;45534;52.690;6.268;2023-03-01T02:12:49;-1.40;99.90
59660;DHT22;45534;52.690;6.268;2023-03-01T02:15:15;-1.40;99.90
59660;DHT22;45534;52.690;6.268;2023-03-01T02:17:41;-1.50;99.90
59660;DHT22;45534;52.690;6.268;2023-03-01T02:22:34;-1.30;99.90
59660;DHT22;45534;52.690;6.268;2023-03-01T02:25:12;-1.30;99.90
59660;DHT22;45534;52.690;6.268;2023-03-01T02:30:22;-1.30;99.90
59660;DHT22;45534;52.690;6.268;2023-03-01T02:32:49;-1.30;99.90
59660;DHT22;45534;52.690;6.268;2023-03-01T02:35:16;-1.20;99.90
59660;DHT22;45534;52.690;6.268;2023-03-01T02:37:44;-1.30;99.90
59660;DHT22;45534;52.690;6.268;2023-03-01T02:40:16;-1.30;99.90
59660;DHT22;45534;52.690;6.268;2023-03-01T02:42:51;-1.30;99.90
59660;DHT22;45534;52.690;6.268;2023-03-01T02:45:17;-1.30;99.90
59660;DHT22;45534;52.690;6.268;2023-03-01T02:47:43;-1.30;99.90
59660;DHT22;45534;52.690;6.268;2023-03-01T02:55:24;-1.30;99.90
59660;DHT22;45534;52.690;6.268;2023-03-01T02:57:49;-1.30;99.90
59660;DHT22;45534;52.690;6.268;2023-03-01T03:00:37;-1.40;99.90
59660;DHT22;45534;52.690;6.268;2023-03-01T03:03:13;-1.40;99.90
59660;DHT22;45534;52.690;6.268;2023-03-01T03:05:39;-1.40;99.90
59660;DHT22;45534;52.690;6.268;2023-03-01T03:08:05;-1.50;99.90
59660;DHT22;45534;52.690;6.268;2023-03-01T03:10:35;-1.50;99.90
59660;DHT22;45534;52.690;6.268;2023-03-01T03:13:04;-1.60;99.90
59660;DHT22;45534;52.690;6.268;2023-03-01T03:15:31;-1.60;99.90
59660;DHT22;45534;52.690;6.268;2023-03-01T03:17:58;-1.60;99.90
59660;DHT22;45534;52.690;6.268;2023-03-01T03:20:26;-1.70;99.90
59660;DHT22;45534;52.690;6.268;2023-03-01T03:22:54;-1.70;99.90
59660;DHT22;45534;52.690;6.268;2023-03-01T03:25:21;-1.80;99.90
59660;DHT22;45534;52.690;6.268;2023-03-01T03:27:48;-1.80;99.90
59660;DHT22;45534;52.690;6.268;2023-03-01T03:30:19;-1.90;99.90
59660;DHT22;45534;52.690;6.268;2023-03-01T03:32:46;-1.90;99.90
59660;DHT22;45534;52.690;6.268;2023-03-01T03:37:44;-2.00;99.90
59660;DHT22;45534;52.690;6.268;2023-03-01T03:40:39;-2.00;99.90
59660;DHT22;45534;52.690;6.268;2023-03-01T03:43:17;-2.00;99.90
59660;DHT22;45534;52.690;6.268;2023-03-01T03:45:48;-2.00;99.90
59660;DHT22;45534;52.690;6.268;2023-03-01T03:48:14;-2.10;99.90
59660;DHT22;45534;52.690;6.268;2023-03-01T03:50:41;-2.10;99.90
59660;DHT22;45534;52.690;6.268;2023-03-01T03:53:09;-2.10;99.90
59660;DHT22;45534;52.690;6.268;2023-03-01T03:55:36;-2.20;99.90
59660;DHT22;45534;52.690;6.268;2023-03-01T03:58:06;-2.20;99.90
59660;DHT22;45534;52.690;6.268;2023-03-01T04:00:36;-2.30;99.90
59660;DHT22;45534;52.690;6.268;2023-03-01T04:03:03;-2.30;99.90
59660;DHT22;45534;52.690;6.268;2023-03-01T04:05:29;-2.30;99.90
59660;DHT22;45534;52.690;6.268;2023-03-01T04:07:55;-2.40;99.90
59660;DHT22;45534;52.690;6.268;2023-03-01T04:10:43;-2.40;99.90
59660;DHT22;45534;52.690;6.268;2023-03-01T04:13:12;-2.50;99.90
59660;DHT22;45534;52.690;6.268;2023-03-01T04:15:38;-2.50;99.90
59660;DHT22;45534;52.690;6.268;2023-03-01T04:18:05;-2.50;99.90
59660;DHT22;45534;52.690;6.268;2023-03-01T04:20:33;-2.60;99.90
59660;DHT22;45534;52.690;6.268;2023-03-01T04:23:06;-2.60;99.90
59660;DHT22;45534;52.690;6.268;2023-03-01T04:26:01;-2.70;99.90
59660;DHT22;45534;52.690;6.268;2023-03-01T04:28:34;-2.70;99.90
59660;DHT22;45534;52.690;6.268;2023-03-01T04:31:04;-2.70;99.90
59660;DHT22;45534;52.690;6.268;2023-03-01T04:33:50;-2.70;99.90
59660;DHT22;45534;52.690;6.268;2023-03-01T04:36:17;-2.80;99.90
59660;DHT22;45534;52.690;6.268;2023-03-01T04:38:43;-2.80;99.90
59660;DHT22;45534;52.690;6.268;2023-03-01T04:41:14;-2.90;99.90
59660;DHT22;45534;52.690;6.268;2023-03-01T04:43:40;-3.10;99.90
59660;DHT22;45534;52.690;6.268;2023-03-01T04:46:08;-3.20;99.90
59660;DHT22;45534;52.690;6.268;2023-03-01T04:48:39;-3.20;99.90
59660;DHT22;45534;52.690;6.268;2023-03-01T04:51:05;-3.30;99.90
59660;DHT22;45534;52.690;6.268;2023-03-01T04:53:32;-3.30;99.90
59660;DHT22;45534;52.690;6.268;2023-03-01T04:55:58;-3.30;99.90
59660;DHT22;45534;52.690;6.268;2023-03-01T04:58:26;-3.30;99.90
59660;DHT22;45534;52.690;6.268;2023-03-01T05:00:52;-3.30;99.90
59660;DHT22;45534;52.690;6.268;2023-03-01T05:03:18;-3.20;99.90
59660;DHT22;45534;52.690;6.268;2023-03-01T05:05:46;-3.20;99.90
59660;DHT22;45534;52.690;6.268;2023-03-01T05:08:13;-3.20;99.90
59660;DHT22;45534;52.690;6.268;2023-03-01T05:10:44;-3.20;99.90
59660;DHT22;45534;52.690;6.268;2023-03-01T05:13:12;-3.30;99.90
59660;DHT22;45534;52.690;6.268;2023-03-01T05:15:39;-3.30;99.90
59660;DHT22;45534;52.690;6.268;2023-03-01T05:18:05;-3.40;99.90
59660;DHT22;45534;52.690;6.268;2023-03-01T05:20:37;-3.50;99.90
59660;DHT22;45534;52.690;6.268;2023-03-01T05:23:03;-3.50;99.90
59660;DHT22;45534;52.690;6.268;2023-03-01T05:25:32;-3.60;99.90
59660;DHT22;45534;52.690;6.268;2023-03-01T05:28:01;-3.70;99.90
59660;DHT22;45534;52.690;6.268;2023-03-01T05:30:31;-3.70;99.90
59660;DHT22;45534;52.690;6.268;2023-03-01T05:32:58;-3.70;99.90
59660;DHT22;45534;52.690;6.268;2023-03-01T05:35:24;-3.70;99.90
59660;DHT22;45534;52.690;6.268;2023-03-01T05:37:50;-3.70;99.90
59660;DHT22;45534;52.690;6.268;2023-03-01T05:40:18;-3.70;99.90
59660;DHT22;45534;52.690;6.268;2023-03-01T05:42:54;-3.70;99.90
59660;DHT22;45534;52.690;6.268;2023-03-01T05:45:21;-3.70;99.90
59660;DHT22;45534;52.690;6.268;2023-03-01T05:47:48;-3.60;99.90
59660;DHT22;45534;52.690;6.268;2023-03-01T05:50:26;-3.60;99.90
59660;DHT22;45534;52.690;6.268;2023-03-01T05:52:59;-3.60;99.90
59660;DHT22;45534;52.690;6.268;2023-03-01T05:55:25;-3.70;99.90
59660;DHT22;45534;52.690;6.268;2023-03-01T05:57:51;-3.60;99.90
59660;DHT22;45534;52.690;6.268;2023-03-01T06:00:19;-3.60;99.90
59660;DHT22;45534;52.690;6.268;2023-03-01T06:02:45;-3.70;99.90
59660;DHT22;45534;52.690;6.268;2023-03-01T06:05:12;-3.70;99.90
59660;DHT22;45534;52.690;6.268;2023-03-01T06:07:38;-3.60;99.90
59660;DHT22;45534;52.690;6.268;2023-03-01T06:10:06;-3.60;99.90
59660;DHT22;45534;52.690;6.268;2023-03-01T06:12:33;-3.60;99.90
59660;DHT22;45534;52.690;6.268;2023-03-01T06:14:59;-3.60;99.90
59660;DHT22;45534;52.690;6.268;2023-03-01T06:17:25;-3.50;99.90
59660;DHT22;45534;52.690;6.268;2023-03-01T06:19:51;-3.50;99.90
59660;DHT22;45534;52.690;6.268;2023-03-01T06:22:17;-3.50;99.90
59660;DHT22;45534;52.690;6.268;2023-03-01T06:24:42;-3.50;99.90
59660;DHT22;45534;52.690;6.268;2023-03-01T06:27:08;-3.60;99.90
59660;DHT22;45534;52.690;6.268;2023-03-01T06:29:34;-3.60;99.90
59660;DHT22;45534;52.690;6.268;2023-03-01T06:31:59;-3.60;99.90
59660;DHT22;45534;52.690;6.268;2023-03-01T06:34:25;-3.60;99.90
59660;DHT22;45534;52.690;6.268;2023-03-01T06:36:51;-3.60;99.90
59660;DHT22;45534;52.690;6.268;2023-03-01T06:39:16;-3.60;99.90
59660;DHT22;45534;52.690;6.268;2023-03-01T06:41:43;-3.60;99.90
59660;DHT22;45534;52.690;6.268;2023-03-01T06:44:09;-3.50;99.90
59660;DHT22;45534;52.690;6.268;2023-03-01T06:46:34;-3.50;99.90
59660;DHT22;45534;52.690;6.268;2023-03-01T06:49:00;-3.50;99.90
59660;DHT22;45534;52.690;6.268;2023-03-01T06:51:26;-3.40;99.90
59660;DHT22;45534;52.690;6.268;2023-03-01T06:53:51;-3.40;99.90
59660;DHT22;45534;52.690;6.268;2023-03-01T06:56:17;-3.30;99.90
59660;DHT22;45534;52.690;6.268;2023-03-01T06:58:43;-3.30;99.90
59660;DHT22;45534;52.690;6.268;2023-03-01T07:01:09;-3.20;99.90
59660;DHT22;45534;52.690;6.268;2023-03-01T07:03:34;-3.20;99.90
59660;DHT22;45534;52.690;6.268;2023-03-01T07:06:00;-3.10;99.90
59660;DHT22;45534;52.690;6.268;2023-03-01T07:08:26;-3.10;99.90
59660;DHT22;45534;52.690;6.268;2023-03-01T07:10:58;-3.00;99.90
59660;DHT22;45534;52.690;6.268;2023-03-01T07:13:24;-3.00;99.90
59660;DHT22;45534;52.690;6.268;2023-03-01T07:15:50;-2.90;99.90
59660;DHT22;45534;52.690;6.268;2023-03-01T07:18:16;-2.80;99.90
59660;DHT22;45534;52.690;6.268;2023-03-01T07:20:42;-2.80;99.90
59660;DHT22;45534;52.690;6.268;2023-03-01T07:23:07;-2.70;99.90
59660;DHT22;45534;52.690;6.268;2023-03-01T07:25:33;-2.70;99.90
59660;DHT22;45534;52.690;6.268;2023-03-01T07:27:59;-2.60;99.90
59660;DHT22;45534;52.690;6.268;2023-03-01T07:30:25;-2.50;99.90
59660;DHT22;45534;52.690;6.268;2023-03-01T07:32:53;-2.40;99.90
59660;DHT22;45534;52.690;6.268;2023-03-01T07:35:18;-2.30;99.90
59660;DHT22;45534;52.690;6.268;2023-03-01T07:37:44;-2.20;99.90
59660;DHT22;45534;52.690;6.268;2023-03-01T07:40:10;-2.20;99.90
59660;DHT22;45534;52.690;6.268;2023-03-01T07:42:36;-2.10;99.90
59660;DHT22;45534;52.690;6.268;2023-03-01T07:45:04;-2.00;99.90
59660;DHT22;45534;52.690;6.268;2023-03-01T07:47:30;-1.90;99.90
59660;DHT22;45534;52.690;6.268;2023-03-01T07:49:56;-1.90;99.90
59660;DHT22;45534;52.690;6.268;2023-03-01T07:52:21;-1.70;99.90
59660;DHT22;45534;52.690;6.268;2023-03-01T07:54:47;-1.60;99.90
59660;DHT22;45534;52.690;6.268;2023-03-01T07:57:13;-1.60;99.90
59660;DHT22;45534;52.690;6.268;2023-03-01T07:59:38;-1.50;99.90
59660;DHT22;45534;52.690;6.268;2023-03-01T08:02:04;-1.40;99.90
59660;DHT22;45534;52.690;6.268;2023-03-01T08:04:30;-1.40;99.90
59660;DHT22;45534;52.690;6.268;2023-03-01T08:06:55;-1.30;99.90
59660;DHT22;45534;52.690;6.268;2023-03-01T08:09:21;-1.30;99.90
59660;DHT22;45534;52.690;6.268;2023-03-01T08:11:47;-1.20;99.90
59660;DHT22;45534;52.690;6.268;2023-03-01T08:14:12;-1.10;99.90
59660;DHT22;45534;52.690;6.268;2023-03-01T08:16:38;-1.00;99.90
59660;DHT22;45534;52.690;6.268;2023-03-01T08:19:09;-0.90;99.90
59660;DHT22;45534;52.690;6.268;2023-03-01T08:21:36;-0.80;99.90
59660;DHT22;45534;52.690;6.268;2023-03-01T08:24:03;-0.70;99.90
59660;DHT22;45534;52.690;6.268;2023-03-01T08:26:30;-0.60;99.90
59660;DHT22;45534;52.690;6.268;2023-03-01T08:28:55;-0.50;99.90
59660;DHT22;45534;52.690;6.268;2023-03-01T08:31:27;-0.40;99.90
59660;DHT22;45534;52.690;6.268;2023-03-01T08:33:56;-0.40;99.90
59660;DHT22;45534;52.690;6.268;2023-03-01T08:36:28;-0.30;99.90
59660;DHT22;45534;52.690;6.268;2023-03-01T08:38:54;-0.20;99.90
59660;DHT22;45534;52.690;6.268;2023-03-01T08:41:19;-0.10;99.90
59660;DHT22;45534;52.690;6.268;2023-03-01T08:43:45;0.00;99.90
59660;DHT22;45534;52.690;6.268;2023-03-01T08:46:12;0.10;99.90
59660;DHT22;45534;52.690;6.268;2023-03-01T08:48:38;0.20;99.90
59660;DHT22;45534;52.690;6.268;2023-03-01T08:51:18;0.30;99.90
59660;DHT22;45534;52.690;6.268;2023-03-01T08:53:44;0.40;99.90
59660;DHT22;45534;52.690;6.268;2023-03-01T08:56:11;0.50;99.90
59660;DHT22;45534;52.690;6.268;2023-03-01T08:58:37;0.60;99.90
59660;DHT22;45534;52.690;6.268;2023-03-01T09:01:09;0.70;99.90
59660;DHT22;45534;52.690;6.268;2023-03-01T09:03:35;0.80;99.90
59660;DHT22;45534;52.690;6.268;2023-03-01T09:06:02;0.90;99.90
59660;DHT22;45534;52.690;6.268;2023-03-01T09:08:28;1.00;99.90
59660;DHT22;45534;52.690;6.268;2023-03-01T09:10:54;1.10;99.90
59660;DHT22;45534;52.690;6.268;2023-03-01T09:13:20;1.20;99.90
59660;DHT22;45534;52.690;6.268;2023-03-01T09:15:45;1.30;99.90
59660;DHT22;45534;52.690;6.268;2023-03-01T09:18:11;1.40;99.90
59660;DHT22;45534;52.690;6.268;2023-03-01T09:20:37;1.60;99.90
59660;DHT22;45534;52.690;6.268;2023-03-01T09:23:02;1.70;99.90
59660;DHT22;45534;52.690;6.268;2023-03-01T09:25:28;1.90;99.90
59660;DHT22;45534;52.690;6.268;2023-03-01T09:27:54;2.10;99.90
59660;DHT22;45534;52.690;6.268;2023-03-01T09:30:20;2.20;99.90
59660;DHT22;45534;52.690;6.268;2023-03-01T09:32:46;2.30;99.90
59660;DHT22;45534;52.690;6.268;2023-03-01T09:35:13;2.40;99.90
59660;DHT22;45534;52.690;6.268;2023-03-01T09:37:39;2.50;99.90
59660;DHT22;45534;52.690;6.268;2023-03-01T09:40:20;2.70;99.90
59660;DHT22;45534;52.690;6.268;2023-03-01T09:43:21;2.80;99.90
59660;DHT22;45534;52.690;6.268;2023-03-01T09:45:49;2.90;99.90
59660;DHT22;45534;52.690;6.268;2023-03-01T09:48:19;3.20;99.90
59660;DHT22;45534;52.690;6.268;2023-03-01T09:50:47;3.40;99.90
59660;DHT22;45534;52.690;6.268;2023-03-01T09:53:16;3.60;99.90
59660;DHT22;45534;52.690;6.268;2023-03-01T09:55:45;3.80;99.90
59660;DHT22;45534;52.690;6.268;2023-03-01T10:01:01;4.10;99.90
59660;DHT22;45534;52.690;6.268;2023-03-01T10:03:43;4.30;99.90
59660;DHT22;45534;52.690;6.268;2023-03-01T10:06:22;4.50;99.90
59660;DHT22;45534;52.690;6.268;2023-03-01T10:09:16;4.60;99.90
59660;DHT22;45534;52.690;6.268;2023-03-01T10:11:47;4.70;99.90
59660;DHT22;45534;52.690;6.268;2023-03-01T10:19:16;5.10;99.90
59660;DHT22;45534;52.690;6.268;2023-03-01T10:21:46;5.20;99.90
59660;DHT22;45534;52.690;6.268;2023-03-01T10:24:15;5.20;99.90
59660;DHT22;45534;52.690;6.268;2023-03-01T10:26:53;5.40;99.90
59660;DHT22;45534;52.690;6.268;2023-03-01T10:29:24;5.50;99.90
59660;DHT22;45534;52.690;6.268;2023-03-01T10:31:53;5.60;99.90
59660;DHT22;45534;52.690;6.268;2023-03-01T10:34:20;5.70;99.90
59660;DHT22;45534;52.690;6.268;2023-03-01T10:36:51;5.70;99.90
59660;DHT22;45534;52.690;6.268;2023-03-01T10:39:24;5.80;99.90
59660;DHT22;45534;52.690;6.268;2023-03-01T10:42:00;5.80;99.90
59660;DHT22;45534;52.690;6.268;2023-03-01T10:44:44;5.90;99.90
59660;DHT22;45534;52.690;6.268;2023-03-01T10:50:03;6.00;99.90
59660;DHT22;45534;52.690;6.268;2023-03-01T10:52:37;6.00;99.90
59660;DHT22;45534;52.690;6.268;2023-03-01T10:55:39;6.20;99.90
59660;DHT22;45534;52.690;6.268;2023-03-01T10:58:18;6.20;99.90
59660;DHT22;45534;52.690;6.268;2023-03-01T11:03:37;6.60;99.90
59660;DHT22;45534;52.690;6.268;2023-03-01T11:08:37;7.10;99.90
59660;DHT22;45534;52.690;6.268;2023-03-01T11:13:54;7.60;99.90
59660;DHT22;45534;52.690;6.268;2023-03-01T11:17:21;7.90;99.90
59660;DHT22;45534;52.690;6.268;2023-03-01T11:19:18;8.30;99.90
59660;DHT22;45534;52.690;6.268;2023-03-01T11:22:01;8.70;99.90
59660;DHT22;45534;52.690;6.268;2023-03-01T11:24:39;8.90;99.90
59660;DHT22;45534;52.690;6.268;2023-03-01T11:30:13;9.00;99.90
59660;DHT22;45534;52.690;6.268;2023-03-01T11:32:47;9.10;99.90
59660;DHT22;45534;52.690;6.268;2023-03-01T11:35:21;9.00;99.90
59660;DHT22;45534;52.690;6.268;2023-03-01T11:37:59;9.00;99.90
59660;DHT22;45534;52.690;6.268;2023-03-01T11:40:37;9.00;99.90
59660;DHT22;45534;52.690;6.268;2023-03-01T11:43:09;9.00;99.00
59660;DHT22;45534;52.690;6.268;2023-03-01T11:56:55;9.70;99.90
59660;DHT22;45534;52.690;6.268;2023-03-01T11:59:39;10.10;99.90
59660;DHT22;45534;52.690;6.268;2023-03-01T12:05:03;10.60;99.90
59660;DHT22;45534;52.690;6.268;2023-03-01T12:07:40;10.60;97.90
59660;DHT22;45534;52.690;6.268;2023-03-01T12:26:30;10.40;99.90
59660;DHT22;45534;52.690;6.268;2023-03-01T12:31:58;10.50;97.20
59660;DHT22;45534;52.690;6.268;2023-03-01T12:34:46;10.80;97.70
59660;DHT22;45534;52.690;6.268;2023-03-01T12:42:22;11.10;91.10
59660;DHT22;45534;52.690;6.268;2023-03-01T12:45:26;11.10;93.60
59660;DHT22;45534;52.690;6.268;2023-03-01T12:50:50;11.50;95.50
59660;DHT22;45534;52.690;6.268;2023-03-01T12:55:45;11.70;94.80
59660;DHT22;45534;52.690;6.268;2023-03-01T12:58:36;11.80;94.50
59660;DHT22;45534;52.690;6.268;2023-03-01T13:01:36;12.00;94.00
59660;DHT22;45534;52.690;6.268;2023-03-01T13:20:27;12.90;82.70
59660;DHT22;45534;52.690;6.268;2023-03-01T13:26:16;13.10;77.90
59660;DHT22;45534;52.690;6.268;2023-03-01T13:33:47;13.30;77.70
59660;DHT22;45534;52.690;6.268;2023-03-01T13:39:27;13.50;75.40
59660;DHT22;45534;52.690;6.268;2023-03-01T13:41:55;13.70;71.30
59660;DHT22;45534;52.690;6.268;2023-03-01T13:46:47;13.70;67.50
59660;DHT22;45534;52.690;6.268;2023-03-01T13:49:16;13.70;64.90
59660;DHT22;45534;52.690;6.268;2023-03-01T13:51:47;13.40;62.80
59660;DHT22;45534;52.690;6.268;2023-03-01T13:54:14;13.10;62.40
59660;DHT22;45534;52.690;6.268;2023-03-01T13:56:41;13.30;65.70
59660;DHT22;45534;52.690;6.268;2023-03-01T13:59:16;13.50;67.20
59660;DHT22;45534;52.690;6.268;2023-03-01T14:01:42;13.70;63.50
59660;DHT22;45534;52.690;6.268;2023-03-01T14:04:28;14.00;63.60
59660;DHT22;45534;52.690;6.268;2023-03-01T14:07:20;13.40;58.50
59660;DHT22;45534;52.690;6.268;2023-03-01T14:09:51;12.80;63.10
59660;DHT22;45534;52.690;6.268;2023-03-01T14:18:02;13.30;63.20
59660;DHT22;45534;52.690;6.268;2023-03-01T14:20:39;13.70;64.60
59660;DHT22;45534;52.690;6.268;2023-03-01T14:23:13;14.10;65.40
59660;DHT22;45534;52.690;6.268;2023-03-01T14:25:49;14.50;61.10
59660;DHT22;45534;52.690;6.268;2023-03-01T14:28:24;14.60;56.60
59660;DHT22;45534;52.690;6.268;2023-03-01T14:30:53;14.20;56.50
59660;DHT22;45534;52.690;6.268;2023-03-01T14:33:30;13.40;56.40
59660;DHT22;45534;52.690;6.268;2023-03-01T14:36:01;13.10;57.90
59660;DHT22;45534;52.690;6.268;2023-03-01T14:38:44;13.00;57.90
59660;DHT22;45534;52.690;6.268;2023-03-01T14:41:15;13.40;60.30
59660;DHT22;45534;52.690;6.268;2023-03-01T14:44:07;13.70;59.00
59660;DHT22;45534;52.690;6.268;2023-03-01T14:46:35;14.00;60.00
59660;DHT22;45534;52.690;6.268;2023-03-01T14:51:43;14.60;60.80
59660;DHT22;45534;52.690;6.268;2023-03-01T14:54:47;15.10;62.20
59660;DHT22;45534;52.690;6.268;2023-03-01T14:57:17;15.40;59.90
59660;DHT22;45534;52.690;6.268;2023-03-01T14:59:43;15.60;59.50
59660;DHT22;45534;52.690;6.268;2023-03-01T15:02:24;15.70;59.60
59660;DHT22;45534;52.690;6.268;2023-03-01T15:04:58;15.70;59.50
59660;DHT22;45534;52.690;6.268;2023-03-01T15:07:31;15.80;57.30
59660;DHT22;45534;52.690;6.268;2023-03-01T15:09:59;15.80;54.10
59660;DHT22;45534;52.690;6.268;2023-03-01T15:14:57;15.40;55.70
59660;DHT22;45534;52.690;6.268;2023-03-01T15:17:32;15.40;57.10
59660;DHT22;45534;52.690;6.268;2023-03-01T15:20:01;15.60;54.80
59660;DHT22;45534;52.690;6.268;2023-03-01T15:22:28;15.80;53.90
59660;DHT22;45534;52.690;6.268;2023-03-01T15:24:54;15.90;55.60
59660;DHT22;45534;52.690;6.268;2023-03-01T15:27:22;15.70;54.90
59660;DHT22;45534;52.690;6.268;2023-03-01T15:30:00;15.70;56.70
59660;DHT22;45534;52.690;6.268;2023-03-01T15:32:36;15.50;56.10
59660;DHT22;45534;52.690;6.268;2023-03-01T15:35:39;15.50;53.70
59660;DHT22;45534;52.690;6.268;2023-03-01T15:38:24;14.90;51.50
59660;DHT22;45534;52.690;6.268;2023-03-01T15:40:51;14.50;54.40
59660;DHT22;45534;52.690;6.268;2023-03-01T15:43:36;13.40;55.40
59660;DHT22;45534;52.690;6.268;2023-03-01T15:46:02;12.00;55.60
59660;DHT22;45534;52.690;6.268;2023-03-01T15:48:29;11.40;58.60
59660;DHT22;45534;52.690;6.268;2023-03-01T15:50:58;11.60;59.40
59660;DHT22;45534;52.690;6.268;2023-03-01T15:53:24;12.00;59.40
59660;DHT22;45534;52.690;6.268;2023-03-01T15:55:52;12.40;58.50
59660;DHT22;45534;52.690;6.268;2023-03-01T15:58:22;12.50;57.90
59660;DHT22;45534;52.690;6.268;2023-03-01T16:00:49;12.00;58.90
59660;DHT22;45534;52.690;6.268;2023-03-01T16:03:22;11.30;59.60
59660;DHT22;45534;52.690;6.268;2023-03-01T16:05:49;10.60;60.70
59660;DHT22;45534;52.690;6.268;2023-03-01T16:08:16;10.00;61.80
59660;DHT22;45534;52.690;6.268;2023-03-01T16:10:42;9.60;62.80
59660;DHT22;45534;52.690;6.268;2023-03-01T16:13:12;9.10;64.10
59660;DHT22;45534;52.690;6.268;2023-03-01T16:15:38;8.80;64.80
59660;DHT22;45534;52.690;6.268;2023-03-01T16:18:05;8.50;65.40
59660;DHT22;45534;52.690;6.268;2023-03-01T16:20:33;8.20;66.20
59660;DHT22;45534;52.690;6.268;2023-03-01T16:23:00;7.90;67.20
59660;DHT22;45534;52.690;6.268;2023-03-01T16:25:30;7.70;67.90
59660;DHT22;45534;52.690;6.268;2023-03-01T16:27:56;7.60;69.10
59660;DHT22;45534;52.690;6.268;2023-03-01T16:30:23;7.40;69.60
59660;DHT22;45534;52.690;6.268;2023-03-01T16:32:50;7.30;69.90
59660;DHT22;45534;52.690;6.268;2023-03-01T16:35:18;7.20;71.20
59660;DHT22;45534;52.690;6.268;2023-03-01T16:37:44;7.10;72.60
59660;DHT22;45534;52.690;6.268;2023-03-01T16:40:19;7.00;73.40
59660;DHT22;45534;52.690;6.268;2023-03-01T16:42:47;6.90;73.20
59660;DHT22;45534;52.690;6.268;2023-03-01T16:45:13;6.80;74.50
59660;DHT22;45534;52.690;6.268;2023-03-01T16:47:38;6.80;74.90
59660;DHT22;45534;52.690;6.268;2023-03-01T16:50:04;6.70;78.80
59660;DHT22;45534;52.690;6.268;2023-03-01T16:52:30;6.60;78.80
59660;DHT22;45534;52.690;6.268;2023-03-01T16:54:56;6.40;80.10
59660;DHT22;45534;52.690;6.268;2023-03-01T16:57:22;6.30;79.40
59660;DHT22;45534;52.690;6.268;2023-03-01T16:59:54;6.30;80.10
59660;DHT22;45534;52.690;6.268;2023-03-01T17:02:20;6.20;82.50
59660;DHT22;45534;52.690;6.268;2023-03-01T17:04:52;6.10;82.50
59660;DHT22;45534;52.690;6.268;2023-03-01T17:07:18;6.10;86.00
59660;DHT22;45534;52.690;6.268;2023-03-01T17:09:44;6.00;88.40
59660;DHT22;45534;52.690;6.268;2023-03-01T17:12:12;5.90;90.00
59660;DHT22;45534;52.690;6.268;2023-03-01T17:14:38;5.70;90.90
59660;DHT22;45534;52.690;6.268;2023-03-01T17:17:10;5.60;90.60
59660;DHT22;45534;52.690;6.268;2023-03-01T17:19:36;5.50;90.70
59660;DHT22;45534;52.690;6.268;2023-03-01T17:22:07;5.40;92.40
59660;DHT22;45534;52.690;6.268;2023-03-01T17:24:43;5.30;94.20
59660;DHT22;45534;52.690;6.268;2023-03-01T17:27:10;5.10;99.90
59660;DHT22;45534;52.690;6.268;2023-03-01T17:29:37;4.90;99.90
59660;DHT22;45534;52.690;6.268;2023-03-01T17:32:03;4.70;99.90
59660;DHT22;45534;52.690;6.268;2023-03-01T17:34:30;4.60;99.90
59660;DHT22;45534;52.690;6.268;2023-03-01T17:36:56;4.60;99.90
59660;DHT22;45534;52.690;6.268;2023-03-01T17:39:23;4.50;99.90
59660;DHT22;45534;52.690;6.268;2023-03-01T17:41:55;4.40;99.90
59660;DHT22;45534;52.690;6.268;2023-03-01T17:44:21;4.40;99.90
59660;DHT22;45534;52.690;6.268;2023-03-01T17:46:47;4.30;99.90
59660;DHT22;45534;52.690;6.268;2023-03-01T17:49:13;4.30;99.90
59660;DHT22;45534;52.690;6.268;2023-03-01T17:51:38;4.30;99.90
59660;DHT22;45534;52.690;6.268;2023-03-01T17:54:04;4.30;99.90